Time;durP1;ratioP1;P1;durP2;ratioP2;P2;SDS_P1;SDS_P2;PMS_P1;PMS_P2;Temp;Humidity;BMP_temperature;BMP_pressure;BME280_temperature;BME280_humidity;BME280_pressure;Samples;Min_cycle;Max_cycle;Signal;HPM_P1;HPM_P2
2022/06/30 00:02:30;;;;;;;1.40;1.30;;;25.30;41.10;;;23.56;43.49;100992.03;12249703;19;20026;-81
2022/06/30 00:06:33;;;;;;;2.65;1.63;;;25.30;41.20;;;23.71;43.63;101023.41;12245307;19;20503;-81
2022/06/30 00:10:35;;;;;;;1.63;1.40;;;25.30;41.30;;;23.70;43.62;101011.06;12244615;19;20022;-81
2022/06/30 00:14:37;;;;;;;2.03;1.20;;;25.30;41.20;;;23.38;43.68;100960.16;12245854;19;20107;-81
2022/06/30 00:18:39;;;;;;;2.35;1.67;;;25.30;41.30;;;23.63;43.80;100997.56;12242919;19;20035;-81
2022/06/30 00:22:41;;;;;;;1.83;1.73;;;25.20;41.10;;;23.69;43.63;100990.75;12243960;19;20373;-81
2022/06/30 00:26:43;;;;;;;2.67;1.65;;;25.30;41.10;;;23.74;43.62;101001.78;12244642;19;20031;-81
2022/06/30 00:30:52;;;;;;;1.50;1.40;;;25.20;41.00;;;23.67;43.36;100980.22;12242646;19;20757;-81
2022/06/30 00:34:54;;;;;;;1.30;1.20;;;25.20;40.80;;;23.59;43.35;100967.72;12245255;19;20021;-81
2022/06/30 00:38:55;;;;;;;2.05;1.33;;;25.30;41.00;;;23.66;43.45;100981.25;12241142;19;20018;-81
2022/06/30 00:42:57;;;;;;;1.55;1.45;;;25.20;41.00;;;23.71;43.38;100986.97;12243884;19;20014;-81
2022/06/30 00:47:00;;;;;;;2.42;1.75;;;25.30;41.10;;;23.57;43.75;100960.88;12245007;19;20379;-81
2022/06/30 00:51:06;;;;;;;1.60;1.50;;;25.30;41.20;;;23.76;43.63;100994.44;12240120;19;20018;-81
2022/06/30 00:55:08;;;;;;;1.70;1.60;;;25.30;41.30;;;23.74;43.76;101002.63;12243361;19;20550;-81
2022/06/30 00:59:14;;;;;;;2.17;1.63;;;25.30;41.30;;;23.62;43.90;100974.56;12238750;19;20022;-81
2022/06/30 01:03:17;;;;;;;1.40;1.30;;;25.30;41.30;;;23.61;44.17;100965.72;12245097;19;20032;-81
2022/06/30 01:07:22;;;;;;;1.77;1.50;;;25.30;41.30;;;23.68;43.75;100981.88;12240497;19;20018;-81
2022/06/30 01:15:44;;;;;;;3.65;1.65;;;25.40;41.40;;;23.65;43.86;100976.88;12242762;19;20022;-81
2022/06/30 01:19:54;;;;;;;1.55;1.45;;;25.30;41.40;;;23.66;44.28;100973.25;12237810;19;20056;-81
2022/06/30 01:23:58;;;;;;;1.40;1.30;;;25.30;42.00;;;23.69;44.74;100977.41;12239818;19;20017;-81
2022/06/30 01:28:00;;;;;;;1.80;1.55;;;25.30;42.70;;;23.62;45.13;100969.22;12240563;19;20042;-82
2022/06/30 01:32:02;;;;;;;1.70;1.60;;;25.30;43.00;;;23.51;45.23;100958.88;12243537;19;22056;-82
2022/06/30 01:36:04;;;;;;;2.50;1.80;;;25.20;43.30;;;23.42;45.12;100961.53;12239141;19;20078;-81
2022/06/30 01:40:06;;;;;;;3.28;2.15;;;25.20;43.30;;;23.52;45.30;100982.72;12240233;19;20015;-81
2022/06/30 01:44:08;;;;;;;2.40;1.63;;;25.10;43.70;;;23.41;45.32;100970.53;12238761;19;20366;-81
2022/06/30 01:48:10;;;;;;;1.88;1.65;;;25.10;43.50;;;23.40;45.57;100965.34;12240275;19;20028;-81
2022/06/30 01:52:12;;;;;;;2.72;2.00;;;25.30;43.70;;;23.38;45.57;100975.31;12229281;19;20046;-80
2022/06/30 01:56:13;;;;;;;2.05;1.70;;;25.10;43.80;;;23.35;45.99;100967.66;12240424;19;20015;-81
2022/06/30 02:00:19;;;;;;;3.35;1.42;;;25.00;44.30;;;23.39;46.09;100983.19;12237789;19;20095;-81
2022/06/30 02:08:40;;;;;;;1.83;1.58;;;25.00;44.60;;;23.22;46.21;100973.44;12237356;19;20491;-81
2022/06/30 02:12:45;;;;;;;1.70;1.60;;;25.00;44.90;;;23.14;46.57;100958.28;12241780;19;20026;-81
2022/06/30 02:16:47;;;;;;;1.58;1.48;;;24.80;45.10;;;23.12;46.44;100954.94;12236494;19;20032;-81
2022/06/30 02:20:49;;;;;;;2.03;1.67;;;24.70;45.00;;;23.05;46.58;100939.75;12236580;19;20025;-81
2022/06/30 02:24:50;;;;;;;2.08;1.80;;;24.70;45.30;;;22.94;46.76;100927.53;12236995;19;20011;-81
2022/06/30 02:28:52;;;;;;;2.13;1.65;;;24.70;45.30;;;23.00;47.08;100939.41;12237413;19;20369;-81
2022/06/30 02:32:54;;;;;;;1.63;1.50;;;24.70;45.40;;;23.06;47.27;100946.75;12237648;19;20010;-81
2022/06/30 02:36:57;;;;;;;1.55;1.45;;;24.60;45.40;;;22.97;47.16;100933.38;12247012;19;20443;-81
2022/06/30 02:40:58;;;;;;;2.28;1.48;;;24.60;45.80;;;22.97;47.32;100943.22;12245427;19;20483;-81
2022/06/30 02:45:01;;;;;;;2.38;1.83;;;24.60;45.70;;;22.98;47.06;100942.25;12250168;19;20019;-81
2022/06/30 02:49:03;;;;;;;1.85;1.73;;;24.60;45.50;;;23.04;47.21;100956.75;12250010;19;20022;-81
2022/06/30 02:53:05;;;;;;;2.05;1.90;;;24.60;45.60;;;22.99;47.22;100954.56;12250969;19;20030;-81
2022/06/30 02:57:07;;;;;;;2.03;1.80;;;24.60;45.70;;;23.04;47.51;100962.06;12248936;19;20015;-81
2022/06/30 03:01:09;;;;;;;1.60;1.50;;;24.70;45.90;;;23.04;47.78;100956.75;12243987;19;20070;-81
2022/06/30 03:05:10;;;;;;;1.50;1.40;;;24.60;45.90;;;22.81;47.88;100927.97;12249412;19;20077;-81
2022/06/30 03:09:12;;;;;;;1.70;1.58;;;24.60;46.00;;;22.95;47.84;100946.03;12246158;19;20011;-81
2022/06/30 03:13:14;;;;;;;1.95;1.60;;;24.60;46.20;;;22.67;48.10;100891.28;12248089;19;20463;-81
2022/06/30 03:17:16;;;;;;;1.98;1.85;;;24.60;46.30;;;22.99;48.16;100940.41;12246626;19;20052;-81
2022/06/30 03:21:19;;;;;;;1.55;1.45;;;24.60;46.20;;;23.03;47.83;100950.56;12240615;19;20018;-81
2022/06/30 03:25:21;;;;;;;1.63;1.52;;;24.60;46.20;;;22.98;48.01;100939.56;12247397;19;20018;-81
2022/06/30 03:29:22;;;;;;;2.05;1.85;;;24.50;46.30;;;22.87;48.36;100914.03;12243976;19;20093;-81
2022/06/30 03:33:26;;;;;;;2.50;1.95;;;24.60;46.50;;;23.02;48.53;100940.06;12247327;19;20018;-81
2022/06/30 03:37:27;;;;;;;1.60;1.50;;;24.60;46.50;;;22.86;48.05;100893.69;12245043;19;20006;-81
2022/06/30 03:41:29;;;;;;;1.90;1.80;;;24.60;46.50;;;22.94;48.58;100907.03;12240504;19;20532;-81
2022/06/30 03:45:31;;;;;;;2.45;1.90;;;24.60;46.60;;;22.95;48.61;100895.41;12243804;19;20018;-81
2022/06/30 03:49:33;;;;;;;2.03;1.85;;;24.60;46.60;;;23.04;48.22;100909.63;12245898;19;20018;-81
2022/06/30 03:53:35;;;;;;;1.90;1.67;;;24.60;46.70;;;22.86;48.47;100888.38;12244184;19;20007;-81
2022/06/30 03:57:37;;;;;;;2.08;1.88;;;24.70;46.50;;;22.94;48.54;100891.06;12243090;19;20017;-81
2022/06/30 04:01:38;;;;;;;1.92;1.70;;;24.60;46.60;;;22.86;48.72;100879.56;12238596;19;20478;-81
2022/06/30 04:05:40;;;;;;;2.22;1.70;;;24.60;46.60;;;22.96;48.58;100902.44;12245984;19;20136;-81
2022/06/30 04:09:42;;;;;;;4.00;1.63;;;24.60;46.80;;;23.06;48.91;100912.09;12245471;19;20068;-80
2022/06/30 04:13:44;;;;;;;1.90;1.77;;;24.70;46.80;;;22.95;48.68;100897.22;12242599;19;20022;-81
2022/06/30 04:17:46;;;;;;;1.65;1.55;;;24.80;46.90;;;22.85;48.71;100872.56;12242748;19;20098;-81
2022/06/30 04:21:47;;;;;;;2.00;1.80;;;24.70;46.80;;;23.00;48.91;100899.44;12239810;19;20019;-81
2022/06/30 04:25:49;;;;;;;2.33;2.13;;;24.70;47.00;;;23.03;48.74;100909.78;12244842;19;20086;-81
2022/06/30 04:29:51;;;;;;;4.20;1.90;;;24.70;46.80;;;23.03;48.82;100910.59;12239996;19;20023;-81
2022/06/30 04:33:52;;;;;;;1.65;1.55;;;24.80;47.00;;;22.96;48.99;100905.09;12237947;19;20074;-81
2022/06/30 04:37:59;;;;;;;3.03;1.95;;;24.70;46.90;;;23.02;49.04;100914.28;12235456;19;20010;-81
2022/06/30 04:42:00;;;;;;;2.15;1.90;;;24.70;46.90;;;22.72;48.95;100887.16;12238550;19;20018;-81
2022/06/30 04:46:02;;;;;;;3.00;1.77;;;24.60;46.90;;;22.83;49.35;100902.00;12238426;19;20018;-81
2022/06/30 04:50:06;;;;;;;2.00;1.80;;;24.60;47.10;;;22.82;49.41;100888.84;12233268;19;20049;-81
2022/06/30 04:54:07;;;;;;;2.28;2.00;;;24.70;47.10;;;22.96;49.43;100904.25;12238427;19;20021;-82
2022/06/30 04:58:09;;;;;;;2.20;1.90;;;24.60;47.10;;;22.72;49.12;100863.19;12222379;19;20515;-80
2022/06/30 05:02:11;;;;;;;2.42;2.10;;;24.90;47.20;;;22.84;49.25;100879.72;12234442;19;20038;-80
2022/06/30 05:06:13;;;;;;;4.78;1.75;;;24.70;46.90;;;22.96;49.21;100904.25;12232036;19;20014;-81
2022/06/30 05:10:14;;;;;;;2.33;2.13;;;24.60;46.90;;;23.02;49.08;100908.13;12229664;19;20368;-80
2022/06/30 05:14:19;;;;;;;2.53;2.10;;;24.70;47.20;;;23.00;49.67;100904.78;12233215;19;20014;-79
2022/06/30 05:18:21;;;;;;;2.15;1.95;;;24.70;47.10;;;22.91;49.58;100894.06;12231748;19;20082;-80
2022/06/30 05:22:22;;;;;;;2.22;2.03;;;24.70;47.10;;;22.97;49.30;100909.41;12235451;19;20082;-79
2022/06/30 05:26:30;;;;;;;3.00;2.40;;;24.70;47.20;;;22.71;49.31;100850.88;12206413;19;20030;-80
2022/06/30 05:30:32;;;;;;;2.40;2.20;;;24.60;47.30;;;23.04;49.25;100906.13;12221218;19;20010;-80
2022/06/30 05:34:35;;;;;;;2.40;2.08;;;24.60;47.20;;;22.98;49.84;100888.97;12219034;19;20111;-79
2022/06/30 05:38:36;;;;;;;2.85;2.30;;;24.70;47.60;;;23.12;49.57;100911.47;12226136;19;20029;-79
2022/06/30 05:42:38;;;;;;;2.67;2.47;;;24.70;47.60;;;22.95;49.56;100887.44;12235729;19;20093;-81
2022/06/30 05:46:40;;;;;;;3.03;2.67;;;24.70;47.50;;;22.75;49.62;100859.38;12230010;19;20010;-80
2022/06/30 05:50:42;;;;;;;2.00;1.90;;;24.70;47.60;;;22.73;49.54;100862.19;12233445;19;20014;-81
2022/06/30 05:54:44;;;;;;;4.30;2.30;;;24.70;47.60;;;23.05;49.61;100910.44;12237761;19;20018;-82
2022/06/30 05:58:45;;;;;;;2.47;2.28;;;24.70;47.70;;;22.99;49.86;100914.59;12231920;19;20078;-81
2022/06/30 06:02:48;;;;;;;2.53;2.22;;;24.70;47.80;;;22.89;49.87;100914.69;12234501;19;20007;-81
2022/06/30 06:06:50;;;;;;;3.70;2.78;;;24.70;47.80;;;22.96;50.14;100920.25;12233726;19;20026;-82
2022/06/30 06:10:52;;;;;;;3.75;2.40;;;24.60;47.80;;;22.85;50.17;100905.34;12227214;19;20018;-82
2022/06/30 06:14:55;;;;;;;3.90;2.97;;;24.60;48.00;;;22.91;50.44;100920.69;12235775;19;20029;-83
2022/06/30 06:18:56;;;;;;;3.35;2.72;;;24.60;48.10;;;22.89;50.32;100919.19;12220828;19;20367;-83
2022/06/30 06:22:58;;;;;;;3.20;2.65;;;24.60;47.90;;;22.92;50.45;100933.00;12227556;19;20026;-82
2022/06/30 06:27:00;;;;;;;2.72;2.53;;;24.50;48.30;;;22.77;50.23;100915.16;12227055;19;20020;-82
2022/06/30 06:31:02;;;;;;;2.90;2.70;;;24.50;48.10;;;22.94;50.29;100943.50;12228769;19;20042;-81
2022/06/30 06:35:06;;;;;;;3.78;2.92;;;24.50;48.10;;;22.71;50.57;100911.28;12225031;19;20355;-80
2022/06/30 06:39:07;;;;;;;2.60;2.40;;;24.60;48.20;;;22.97;50.18;100952.03;12229782;19;20017;-79
2022/06/30 06:43:09;;;;;;;2.45;2.25;;;24.50;48.30;;;22.72;50.51;100915.63;12233942;19;20014;-79
2022/06/30 06:47:11;;;;;;;2.60;2.40;;;24.60;48.40;;;22.90;50.37;100947.47;12229849;19;20422;-80
2022/06/30 06:51:13;;;;;;;2.85;2.42;;;24.50;48.40;;;22.94;50.59;100957.66;12229225;19;20070;-80
2022/06/30 06:55:17;;;;;;;2.47;2.28;;;24.50;48.50;;;22.80;50.58;100915.66;12230418;19;20015;-80
2022/06/30 06:59:18;;;;;;;3.03;2.65;;;24.50;48.60;;;22.91;50.68;100930.50;12226683;19;20061;-80
2022/06/30 07:03:21;;;;;;;2.63;2.50;;;24.50;48.50;;;22.71;50.92;100903.28;12231685;19;20413;-80
2022/06/30 07:07:22;;;;;;;3.28;2.92;;;24.50;48.70;;;22.99;50.74;100943.06;12229993;19;20018;-79
2022/06/30 07:11:24;;;;;;;3.17;2.90;;;24.50;48.80;;;22.90;50.80;100935.00;12230305;19;20102;-80
2022/06/30 07:15:26;;;;;;;2.75;2.47;;;24.90;49.00;;;22.76;50.89;100911.63;12231020;19;20011;-79
2022/06/30 07:19:27;;;;;;;2.47;2.28;;;24.60;48.90;;;22.96;50.87;100938.88;12226268;19;20028;-80
2022/06/30 07:23:29;;;;;;;3.65;2.75;;;24.60;48.90;;;22.98;50.85;100942.25;12240519;19;20022;-80
2022/06/30 07:27:32;;;;;;;3.75;2.67;;;24.60;49.00;;;23.09;50.79;100954.44;12239583;19;20015;-80
2022/06/30 07:31:34;;;;;;;8.43;2.97;;;24.70;49.20;;;23.03;51.05;100947.06;12238210;19;20018;-81
2022/06/30 07:35:36;;;;;;;3.70;2.70;;;24.60;49.10;;;22.90;50.94;100937.69;12240207;19;20011;-80
2022/06/30 07:39:38;;;;;;;4.22;2.60;;;25.00;49.40;;;22.99;50.99;100949.22;12239716;19;20467;-80
2022/06/30 07:43:39;;;;;;;3.10;2.72;;;24.70;49.20;;;23.10;51.25;100945.44;12240863;19;20015;-81
2022/06/30 07:47:46;;;;;;;3.38;3.03;;;24.70;49.20;;;23.26;51.52;100958.81;12242249;19;20018;-81
2022/06/30 07:51:48;;;;;;;3.10;2.80;;;24.70;49.30;;;23.22;51.42;100945.97;12238669;19;20020;-80
2022/06/30 07:55:49;;;;;;;4.85;2.70;;;24.80;49.60;;;23.32;51.25;100933.34;12239241;19;20029;-79
2022/06/30 07:59:51;;;;;;;3.50;2.90;;;24.80;49.50;;;23.21;51.54;100909.66;12240419;19;20010;-80
2022/06/30 08:03:53;;;;;;;3.50;3.13;;;24.90;49.50;;;23.32;51.15;100939.50;12239359;19;20385;-80
2022/06/30 08:07:55;;;;;;;4.40;3.45;;;24.90;49.40;;;23.41;51.48;100949.19;12241400;19;20026;-80
2022/06/30 08:11:57;;;;;;;3.30;2.90;;;25.00;49.50;;;23.50;51.44;100942.06;12239440;19;20027;-79
2022/06/30 08:15:59;;;;;;;4.05;3.42;;;25.00;49.60;;;23.48;51.67;100937.88;12239307;19;20359;-80
2022/06/30 08:20:02;;;;;;;3.80;3.50;;;25.10;49.60;;;23.33;51.55;100897.69;12236911;19;20027;-80
2022/06/30 08:24:04;;;;;;;7.28;4.00;;;25.10;49.70;;;23.29;51.80;100883.88;12239755;19;20047;-80
2022/06/30 08:28:08;;;;;;;5.22;3.40;;;25.10;49.80;;;23.37;51.74;100891.03;12237627;19;20495;-80
2022/06/30 08:32:09;;;;;;;3.63;3.33;;;25.30;49.70;;;23.58;51.43;100922.56;12239115;19;20025;-80
2022/06/30 08:36:11;;;;;;;4.72;3.90;;;25.30;49.90;;;23.71;51.63;100925.63;12235097;19;20472;-79
2022/06/30 08:44:37;;;;;;;4.28;3.22;;;25.60;50.00;;;23.86;51.65;100933.78;12237028;19;20445;-80
2022/06/30 08:48:39;;;;;;;5.30;3.65;;;25.50;49.90;;;23.93;51.88;100936.63;12237695;19;20024;-80
2022/06/30 08:52:51;;;;;;;4.55;3.92;;;25.50;49.80;;;24.01;51.87;100939.28;12236959;19;20094;-80
2022/06/30 08:57:01;;;;;;;6.20;4.28;;;25.40;49.90;;;23.91;51.83;100922.63;12238575;19;20043;-81
2022/06/30 09:01:05;;;;;;;4.15;3.75;;;25.50;49.80;;;24.00;51.85;100930.44;12233797;19;20014;-80
2022/06/30 09:05:07;;;;;;;4.85;4.35;;;25.60;50.00;;;24.07;51.58;100922.59;12238227;19;20019;-80
2022/06/30 09:09:11;;;;;;;5.55;4.43;;;25.60;49.90;;;23.99;51.79;100917.28;12234442;19;20018;-80
2022/06/30 09:13:13;;;;;;;6.30;4.57;;;25.80;50.00;;;23.79;52.01;100877.63;12238518;19;20014;-80
2022/06/30 09:17:28;;;;;;;8.18;5.07;;;25.60;49.90;;;24.08;52.34;100918.94;12233407;19;20018;-80
2022/06/30 09:21:29;;;;;;;7.45;5.32;;;25.60;50.30;;;24.17;51.74;100941.09;12231791;19;20033;-79
2022/06/30 09:25:31;;;;;;;8.10;6.03;;;25.70;50.00;;;24.23;52.18;100945.78;12234835;19;20081;-80
2022/06/30 09:29:33;;;;;;;6.28;5.65;;;25.70;50.30;;;24.25;52.45;100930.44;12234050;19;20018;-80
2022/06/30 09:33:39;;;;;;;6.45;5.13;;;25.90;50.40;;;24.20;52.18;100903.41;12236134;19;20022;-80
2022/06/30 09:37:41;;;;;;;7.07;5.53;;;25.90;50.50;;;24.34;52.37;100908.06;12234653;19;20484;-81
2022/06/30 09:41:44;;;;;;;6.93;5.63;;;25.90;50.20;;;24.39;52.22;100918.22;12230452;19;20021;-81
2022/06/30 09:45:46;;;;;;;7.80;5.57;;;26.00;50.40;;;24.62;52.10;100937.03;12232234;19;20867;-80
2022/06/30 09:49:48;;;;;;;11.38;5.93;;;26.20;50.50;;;24.70;52.22;100934.34;12231976;19;20018;-80
2022/06/30 09:54:10;;;;;;;8.23;5.72;;;26.10;50.30;;;24.75;52.36;100925.84;12236138;19;20446;-80
2022/06/30 09:58:15;;;;;;;8.25;5.93;;;26.20;50.60;;;24.87;52.34;100933.31;12230103;19;20090;-80
2022/06/30 10:02:17;;;;;;;9.55;6.78;;;26.30;50.70;;;24.93;52.03;100927.25;12234555;19;20038;-81
2022/06/30 10:06:19;;;;;;;7.50;6.72;;;26.40;50.40;;;24.99;52.25;100928.41;12232746;19;20031;-81
2022/06/30 10:10:21;;;;;;;7.55;6.53;;;26.50;50.30;;;25.06;51.76;100933.88;12233019;19;20018;-80
2022/06/30 10:14:28;;;;;;;7.63;6.57;;;26.50;50.10;;;24.93;51.73;100905.88;12234120;19;20022;-80
2022/06/30 10:18:32;;;;;;;7.72;5.85;;;26.60;50.10;;;24.97;52.18;100903.69;12231334;19;20010;-80
2022/06/30 10:22:34;;;;;;;7.43;6.43;;;26.60;50.10;;;25.08;51.88;100913.97;12233047;19;20011;-80
2022/06/30 10:31:29;;;;;;;6.72;6.03;;;26.70;50.20;;;25.22;51.65;100922.28;12230618;19;20085;-80
2022/06/30 10:35:51;;;;;;;7.22;6.45;;;26.70;50.20;;;25.25;52.07;100920.13;12232923;19;20392;-80
2022/06/30 10:40:02;;;;;;;7.78;6.97;;;26.70;50.30;;;25.32;52.29;100920.22;12229338;19;20042;-80
2022/06/30 10:44:03;;;;;;;8.90;7.85;;;26.80;50.30;;;25.47;51.80;100937.19;12231978;19;20007;-80
2022/06/30 10:48:09;;;;;;;8.77;7.88;;;26.90;50.40;;;25.49;51.97;100918.28;12231311;19;20010;-80
2022/06/30 10:52:24;;;;;;;;;;;27.00;50.30;;;25.77;51.42;100927.44;12233348;19;20557;-79
2022/06/30 10:56:51;;;;;;;6.90;6.20;;;27.00;49.80;;;25.96;51.85;100923.47;12235380;19;19925;-80
2022/06/30 11:01:12;;;;;;;8.57;7.78;;;27.30;50.20;;;26.03;51.75;100911.03;12240151;19;20011;-80
2022/06/30 11:05:26;;;;;;;8.50;7.60;;;27.40;50.20;;;26.10;51.82;100918.34;12243250;19;20021;-79
2022/06/30 11:09:43;;;;;;;11.07;8.30;;;27.70;50.20;;;26.20;51.54;100924.25;12243157;19;20018;-79
2022/06/30 11:13:46;;;;;;;8.88;8.05;;;27.60;49.70;;;26.19;51.47;100904.69;12245958;19;20369;-79
2022/06/30 11:17:52;;;;;;;10.73;8.52;;;27.70;49.70;;;26.35;51.22;100911.69;12239128;19;20117;-79
2022/06/30 11:21:54;;;;;;;9.45;8.50;;;27.70;49.50;;;26.28;51.39;100886.69;12245667;19;20025;-78
2022/06/30 11:30:30;;;;;;;9.88;7.70;;;27.90;49.40;;;26.55;51.20;100914.72;12241746;19;20773;-79
2022/06/30 11:34:37;;;;;;;8.43;7.63;;;28.00;49.40;;;26.47;51.06;100894.19;12241103;19;20738;-80
2022/06/30 11:38:38;;;;;;;8.98;8.07;;;28.00;49.10;;;26.38;51.24;100883.72;12240258;19;20022;-79
2022/06/30 11:42:40;;;;;;;10.15;7.63;;;28.00;49.30;;;26.56;51.33;100908.34;12243541;19;20514;-79
2022/06/30 11:47:11;;;;;;;9.32;8.20;;;28.00;49.10;;;26.61;51.10;100910.47;12241208;19;20025;-80
2022/06/30 11:51:14;;;;;;;8.57;7.78;;;28.10;49.00;;;26.46;50.66;100889.00;12236808;19;20082;-78
2022/06/30 11:55:18;;;;;;;9.90;7.93;;;28.00;48.90;;;26.54;50.80;100906.84;12239460;19;20014;-79
2022/06/30 11:59:21;;;;;;;9.10;8.20;;;28.10;48.90;;;26.46;51.01;100899.72;12235379;19;20014;-78
2022/06/30 12:03:23;;;;;;;8.65;7.85;;;28.10;49.10;;;26.59;51.14;100904.44;12241202;19;20491;-78
2022/06/30 12:07:26;;;;;;;8.93;8.13;;;28.00;48.90;;;26.56;50.74;100886.91;12239174;19;20536;-78
2022/06/30 12:11:31;;;;;;;8.98;8.15;;;28.20;49.10;;;26.64;50.88;100880.63;12237721;19;20078;-78
2022/06/30 12:15:33;;;;;;;8.43;7.45;;;28.10;49.20;;;26.85;50.86;100878.00;12238331;19;20357;-78
2022/06/30 12:19:35;;;;;;;10.68;8.25;;;28.20;49.10;;;27.00;50.73;100882.50;12237014;19;20002;-78
2022/06/30 12:23:39;;;;;;;8.27;7.53;;;28.30;49.30;;;27.24;50.93;100892.06;12241321;19;20014;-78
2022/06/30 12:27:50;;;;;;;9.50;8.70;;;28.50;49.60;;;27.36;50.56;100879.84;12238406;19;20128;-78
2022/06/30 12:32:10;;;;;;;9.10;8.23;;;28.60;48.90;;;27.44;50.29;100881.56;12240313;19;20010;-79
2022/06/30 12:36:15;;;;;;;8.43;7.47;;;28.80;48.80;;;27.35;50.33;100846.81;12236585;19;20022;-78
2022/06/30 12:40:22;;;;;;;8.60;7.80;;;28.90;48.80;;;27.49;50.26;100865.69;12235330;19;20011;-78
2022/06/30 12:44:36;;;;;;;9.20;8.40;;;29.00;48.00;;;27.64;50.37;100881.75;12237679;19;20010;-78
2022/06/30 12:48:53;;;;;;;8.55;7.57;;;29.00;48.20;;;27.74;50.42;100874.19;12234571;19;20019;-78
2022/06/30 12:53:13;;;;;;;7.70;7.00;;;29.10;48.50;;;27.85;50.13;100867.50;12238392;19;20020;-78
2022/06/30 12:57:15;;;;;;;7.82;7.13;;;29.20;48.30;;;28.02;50.00;100875.03;12236419;19;20014;-79
2022/06/30 13:01:20;;;;;;;8.10;6.82;;;29.40;48.10;;;27.99;49.39;100837.84;12232173;19;20032;-78
2022/06/30 13:05:21;;;;;;;8.02;6.95;;;29.50;47.50;;;28.23;49.27;100867.97;12237072;19;20015;-78
2022/06/30 13:09:29;;;;;;;8.15;7.35;;;29.60;47.90;;;28.32;49.21;100860.56;12234202;19;20096;-78
2022/06/30 13:13:31;;;;;;;8.23;7.30;;;29.70;47.40;;;28.34;49.53;100861.19;12238576;19;20415;-79
2022/06/30 13:17:33;;;;;;;7.82;7.13;;;29.80;47.40;;;28.34;49.52;100872.78;12233286;19;20480;-78
2022/06/30 13:21:36;;;;;;;7.57;6.90;;;29.80;47.20;;;28.27;49.05;100868.38;12230946;19;20034;-78
2022/06/30 13:25:38;;;;;;;7.38;6.72;;;30.00;47.10;;;28.17;49.22;100849.97;12234998;19;20389;-79
2022/06/30 13:29:40;;;;;;;8.07;7.30;;;29.80;47.00;;;28.24;48.61;100866.91;12237806;19;20434;-79
2022/06/30 13:33:42;;;;;;;9.05;6.57;;;29.80;46.80;;;28.13;48.97;100851.38;12238218;19;20021;-79
2022/06/30 13:37:44;;;;;;;7.68;6.97;;;29.70;46.90;;;28.22;49.05;100867.13;12232176;19;20024;-78
2022/06/30 13:41:46;;;;;;;6.88;6.25;;;29.80;47.10;;;28.36;48.94;100875.28;12232243;19;20472;-78
2022/06/30 13:45:48;;;;;;;7.25;6.55;;;29.80;47.20;;;28.43;49.04;100876.97;12233263;19;20133;-79
2022/06/30 13:49:49;;;;;;;7.72;6.93;;;29.80;47.10;;;28.44;48.97;100872.47;12234807;19;20029;-78
2022/06/30 13:53:51;;;;;;;7.80;7.10;;;29.90;47.00;;;28.35;48.56;100844.88;12234992;19;20011;-79
2022/06/30 13:57:53;;;;;;;6.85;6.15;;;29.90;46.70;;;28.53;48.75;100865.06;12230294;19;20035;-78
2022/06/30 14:01:55;;;;;;;7.93;6.00;;;29.90;47.10;;;28.59;48.74;100853.50;12235045;19;20070;-79
2022/06/30 14:05:57;;;;;;;7.30;6.60;;;30.00;47.10;;;28.62;48.62;100842.34;12232140;19;20081;-79
2022/06/30 14:09:59;;;;;;;6.38;5.72;;;30.00;46.90;;;28.68;48.31;100847.75;12234643;19;20050;-79
2022/06/30 14:14:01;;;;;;;6.55;5.95;;;30.10;46.60;;;28.80;48.51;100857.94;12232437;19;20010;-78
2022/06/30 14:18:03;;;;;;;6.22;5.72;;;30.20;46.30;;;28.88;48.08;100855.06;12230915;19;20022;-79
2022/06/30 14:22:05;;;;;;;7.28;6.47;;;30.20;46.30;;;28.87;48.13;100848.03;12234342;19;20014;-79
2022/06/30 14:26:07;;;;;;;5.75;5.25;;;30.20;46.00;;;28.95;47.93;100847.84;12232766;19;20019;-79
2022/06/30 14:30:11;;;;;;;7.30;5.32;;;30.30;45.90;;;28.98;47.52;100836.69;12221503;19;20018;-79
2022/06/30 14:34:13;;;;;;;6.37;5.37;;;30.30;45.60;;;29.16;47.71;100852.25;12245813;19;20105;-78
2022/06/30 14:38:15;;;;;;;6.22;5.68;;;30.40;45.60;;;29.30;47.11;100859.34;12241071;19;20010;-78
2022/06/30 14:46:37;;;;;;;6.13;5.63;;;30.60;45.20;;;29.35;47.19;100853.31;12242815;19;20024;-79
2022/06/30 14:50:39;;;;;;;7.63;6.30;;;30.60;45.00;;;29.26;46.95;100833.03;12239072;19;20018;-78
2022/06/30 14:54:41;;;;;;;6.68;5.90;;;30.70;45.00;;;29.28;46.74;100821.03;12244510;19;20090;-79
2022/06/30 14:58:43;;;;;;;6.78;6.18;;;30.70;45.10;;;29.37;46.87;100835.13;12238265;19;20139;-79
2022/06/30 15:02:48;;;;;;;13.05;5.63;;;30.80;45.00;;;29.32;46.98;100816.06;12241582;19;20014;-79
2022/06/30 15:06:53;;;;;;;5.28;4.88;;;30.70;44.90;;;29.50;46.86;100842.38;12208027;19;20099;-79
2022/06/30 15:10:55;;;;;;;;;;;30.80;45.00;;;29.43;46.82;100823.53;12224796;19;20557;-78
2022/06/30 15:15:00;;;;;;;5.18;4.32;;;30.90;45.30;;;29.44;47.01;100843.22;12225947;19;20404;-79
2022/06/30 15:19:01;;;;;;;5.18;4.78;;;30.90;45.00;;;29.36;46.92;100822.72;12223462;19;20025;-78
2022/06/30 15:27:24;;;;;;;6.53;5.93;;;30.80;44.50;;;29.27;46.70;100810.47;12228188;19;20014;-77
2022/06/30 15:31:25;;;;;;;5.40;4.75;;;30.80;44.50;;;29.24;46.62;100803.63;12222544;19;20019;-78
2022/06/30 15:35:27;;;;;;;5.70;5.20;;;30.70;44.50;;;29.24;46.46;100786.69;12226238;19;20018;-78
2022/06/30 15:39:29;;;;;;;5.60;5.10;;;30.70;44.60;;;29.29;46.23;100781.50;12222559;19;20078;-78
2022/06/30 15:43:31;;;;;;;5.80;5.30;;;30.80;44.50;;;29.36;46.46;100801.19;12214076;19;20018;-78
2022/06/30 15:47:33;;;;;;;5.68;5.18;;;30.80;44.50;;;29.49;46.54;100811.13;12229518;19;20018;-78
2022/06/30 15:51:35;;;;;;;6.72;5.80;;;31.00;44.60;;;29.32;46.58;100778.41;12225179;19;20129;-78
2022/06/30 15:55:38;;;;;;;6.13;5.53;;;30.80;45.00;;;29.38;46.37;100784.81;12228724;19;20014;-79
2022/06/30 15:59:40;;;;;;;5.35;4.75;;;30.80;44.60;;;29.55;46.22;100800.34;12223095;19;20037;-79
2022/06/30 16:03:42;;;;;;;5.63;5.13;;;30.90;44.60;;;29.48;46.04;100766.41;12227048;19;20023;-79
2022/06/30 16:07:43;;;;;;;5.35;4.93;;;30.90;44.70;;;29.61;45.87;100782.53;12229948;19;20472;-79
2022/06/30 16:11:45;;;;;;;5.75;5.25;;;31.00;44.50;;;29.57;45.86;100762.47;12225225;19;20484;-78
2022/06/30 16:15:47;;;;;;;5.32;4.85;;;31.00;44.30;;;29.61;45.73;100766.38;12228632;19;20547;-78
2022/06/30 16:19:49;;;;;;;5.30;4.90;;;31.00;44.10;;;29.49;46.17;100736.59;12227741;19;20021;-78
2022/06/30 16:23:51;;;;;;;5.63;5.07;;;31.10;44.00;;;29.63;45.72;100755.41;12232341;19;20022;-78
2022/06/30 16:27:54;;;;;;;5.43;4.93;;;31.10;43.90;;;29.72;45.81;100759.56;12228639;19;20018;-78
2022/06/30 16:31:56;;;;;;;7.35;5.50;;;31.10;43.90;;;29.65;45.61;100739.91;12229921;19;20821;-78
2022/06/30 16:35:58;;;;;;;5.90;5.18;;;31.10;44.00;;;29.61;45.70;100744.03;12227359;19;20495;-79
2022/06/30 16:39:59;;;;;;;5.60;5.10;;;31.10;43.90;;;29.69;46.03;100757.28;12226359;19;20493;-78
2022/06/30 16:44:03;;;;;;;5.32;4.93;;;31.10;44.10;;;29.68;45.50;100739.50;12227143;19;20030;-78
2022/06/30 16:48:05;;;;;;;5.47;5.07;;;31.10;44.00;;;29.73;45.43;100750.44;12227353;19;20018;-78
2022/06/30 16:52:07;;;;;;;6.30;5.00;;;31.20;43.90;;;29.82;45.29;100743.00;12232083;19;20018;-78
2022/06/30 16:56:10;;;;;;;5.22;4.80;;;31.20;43.90;;;29.63;45.06;100720.44;12227507;19;20106;-78
2022/06/30 17:00:12;;;;;;;5.43;4.93;;;31.20;43.80;;;29.87;45.42;100770.94;12225993;19;20031;-78
2022/06/30 17:04:14;;;;;;;5.05;4.65;;;31.20;43.90;;;29.89;45.29;100771.53;12224579;19;20032;-78
2022/06/30 17:08:15;;;;;;;4.90;4.55;;;31.30;43.80;;;29.84;45.20;100771.34;12227100;19;20026;-79
2022/06/30 17:12:24;;;;;;;5.68;5.18;;;31.20;43.60;;;29.71;45.53;100753.34;12221841;19;20014;-79